sensor_id;sensor_type;location;lat;lon;timestamp;pressure;altitude;pressure_sealevel;temperature;humidity
42361;BME280;54542;51.562;0.004;2022-07-10T00:01:05;102879.34;;;16.52;43.51
42361;BME280;54542;51.562;0.004;2022-07-10T00:03:32;102882.18;;;16.80;43.34
42361;BME280;54542;51.562;0.004;2022-07-10T00:05:59;102879.48;;;16.30;43.81
42361;BME280;54542;51.562;0.004;2022-07-10T00:08:26;102880.07;;;16.17;44.09
42361;BME280;54542;51.562;0.004;2022-07-10T00:10:53;102879.36;;;16.44;44.31
42361;BME280;54542;51.562;0.004;2022-07-10T00:13:20;102877.10;;;16.46;44.13
42361;BME280;54542;51.562;0.004;2022-07-10T00:15:47;102875.97;;;16.35;44.28
42361;BME280;54542;51.562;0.004;2022-07-10T00:18:15;102876.70;;;16.76;44.34
42361;BME280;54542;51.562;0.004;2022-07-10T00:20:42;102876.03;;;16.22;44.70
42361;BME280;54542;51.562;0.004;2022-07-10T00:23:08;102878.32;;;16.63;44.76
42361;BME280;54542;51.562;0.004;2022-07-10T00:25:36;102876.76;;;16.05;44.80
42361;BME280;54542;51.562;0.004;2022-07-10T00:28:03;102879.74;;;16.54;45.08
42361;BME280;54542;51.562;0.004;2022-07-10T00:30:31;102878.63;;;16.01;45.07
42361;BME280;54542;51.562;0.004;2022-07-10T00:32:58;102878.31;;;16.41;44.95
42361;BME280;54542;51.562;0.004;2022-07-10T00:35:25;102876.83;;;16.28;45.61
42361;BME280;54542;51.562;0.004;2022-07-10T00:37:52;102873.36;;;16.26;45.55
42361;BME280;54542;51.562;0.004;2022-07-10T00:40:19;102872.36;;;16.21;45.59
42361;BME280;54542;51.562;0.004;2022-07-10T00:42:46;102876.55;;;16.12;45.66
42361;BME280;54542;51.562;0.004;2022-07-10T00:45:13;102876.78;;;15.56;46.07
42361;BME280;54542;51.562;0.004;2022-07-10T00:47:40;102871.01;;;15.94;46.19
42361;BME280;54542;51.562;0.004;2022-07-10T00:50:08;102868.63;;;15.94;45.87
42361;BME280;54542;51.562;0.004;2022-07-10T00:52:35;102866.74;;;15.34;46.09
42361;BME280;54542;51.562;0.004;2022-07-10T00:55:04;102867.36;;;15.80;46.06
42361;BME280;54542;51.562;0.004;2022-07-10T00:57:32;102866.16;;;15.78;46.29
42361;BME280;54542;51.562;0.004;2022-07-10T01:00:00;102863.51;;;15.83;46.70
42361;BME280;54542;51.562;0.004;2022-07-10T01:02:27;102864.86;;;15.77;46.43
42361;BME280;54542;51.562;0.004;2022-07-10T01:04:57;102863.06;;;15.76;46.53
42361;BME280;54542;51.562;0.004;2022-07-10T01:07:24;102856.75;;;15.73;47.08
42361;BME280;54542;51.562;0.004;2022-07-10T01:09:51;102851.29;;;15.70;46.80
42361;BME280;54542;51.562;0.004;2022-07-10T01:12:20;102851.60;;;15.60;47.26
42361;BME280;54542;51.562;0.004;2022-07-10T01:14:48;102849.61;;;15.83;46.93
42361;BME280;54542;51.562;0.004;2022-07-10T01:17:16;102848.00;;;15.66;47.94
42361;BME280;54542;51.562;0.004;2022-07-10T01:19:43;102852.42;;;15.75;47.18
42361;BME280;54542;51.562;0.004;2022-07-10T01:22:10;102848.33;;;15.78;46.78
42361;BME280;54542;51.562;0.004;2022-07-10T01:24:38;102844.98;;;15.61;47.21
42361;BME280;54542;51.562;0.004;2022-07-10T01:27:05;102851.83;;;15.39;48.12
42361;BME280;54542;51.562;0.004;2022-07-10T01:29:33;102852.65;;;15.61;47.80
42361;BME280;54542;51.562;0.004;2022-07-10T01:32:10;102853.86;;;14.44;49.49
42361;BME280;54542;51.562;0.004;2022-07-10T01:34:38;102853.24;;;14.87;48.96
42361;BME280;54542;51.562;0.004;2022-07-10T01:37:06;102853.17;;;15.24;48.78
42361;BME280;54542;51.562;0.004;2022-07-10T01:39:33;102848.49;;;15.35;48.37
42361;BME280;54542;51.562;0.004;2022-07-10T01:42:00;102848.04;;;14.94;48.24
42361;BME280;54542;51.562;0.004;2022-07-10T01:44:26;102848.89;;;16.08;48.56
42361;BME280;54542;51.562;0.004;2022-07-10T01:46:53;102847.68;;;15.40;47.99
42361;BME280;54542;51.562;0.004;2022-07-10T01:49:20;102847.85;;;15.83;47.96
42361;BME280;54542;51.562;0.004;2022-07-10T01:51:47;102846.92;;;16.21;47.97
42361;BME280;54542;51.562;0.004;2022-07-10T01:54:14;102849.72;;;15.47;47.58
42361;BME280;54542;51.562;0.004;2022-07-10T01:56:41;102849.02;;;16.44;47.32
42361;BME280;54542;51.562;0.004;2022-07-10T01:59:08;102845.45;;;15.91;47.39
42361;BME280;54542;51.562;0.004;2022-07-10T02:01:35;102845.65;;;16.29;47.59
42361;BME280;54542;51.562;0.004;2022-07-10T02:04:02;102847.06;;;15.22;48.05
42361;BME280;54542;51.562;0.004;2022-07-10T02:06:30;102845.21;;;15.67;47.96
42361;BME280;54542;51.562;0.004;2022-07-10T02:08:57;102842.36;;;15.41;47.69
42361;BME280;54542;51.562;0.004;2022-07-10T02:11:24;102842.89;;;15.36;47.73
42361;BME280;54542;51.562;0.004;2022-07-10T02:13:51;102841.16;;;15.89;47.19
42361;BME280;54542;51.562;0.004;2022-07-10T02:16:18;102841.34;;;15.26;47.48
42361;BME280;54542;51.562;0.004;2022-07-10T02:18:45;102838.75;;;15.47;47.29
42361;BME280;54542;51.562;0.004;2022-07-10T02:21:12;102841.05;;;15.86;47.45
42361;BME280;54542;51.562;0.004;2022-07-10T02:23:39;102840.21;;;15.33;47.19
42361;BME280;54542;51.562;0.004;2022-07-10T02:26:06;102841.04;;;15.29;47.26
42361;BME280;54542;51.562;0.004;2022-07-10T02:28:33;102840.08;;;15.67;47.43
42361;BME280;54542;51.562;0.004;2022-07-10T02:31:00;102837.26;;;16.06;47.24
42361;BME280;54542;51.562;0.004;2022-07-10T02:33:28;102837.84;;;15.22;47.03
42361;BME280;54542;51.562;0.004;2022-07-10T02:35:55;102838.70;;;15.34;47.66
42361;BME280;54542;51.562;0.004;2022-07-10T02:38:22;102839.10;;;14.95;47.22
42361;BME280;54542;51.562;0.004;2022-07-10T02:40:49;102838.06;;;15.68;47.54
42361;BME280;54542;51.562;0.004;2022-07-10T02:43:16;102837.25;;;15.29;47.69
42361;BME280;54542;51.562;0.004;2022-07-10T02:45:44;102835.69;;;15.66;47.49
42361;BME280;54542;51.562;0.004;2022-07-10T02:48:10;102832.73;;;15.54;47.24
42361;BME280;54542;51.562;0.004;2022-07-10T02:50:37;102833.75;;;15.64;46.93
42361;BME280;54542;51.562;0.004;2022-07-10T02:53:04;102828.50;;;15.56;46.77
42361;BME280;54542;51.562;0.004;2022-07-10T02:55:32;102827.57;;;15.13;46.91
42361;BME280;54542;51.562;0.004;2022-07-10T02:57:59;102829.88;;;15.15;46.98
42361;BME280;54542;51.562;0.004;2022-07-10T03:00:27;102828.56;;;14.65;46.78
42361;BME280;54542;51.562;0.004;2022-07-10T03:02:55;102826.35;;;15.39;46.95
42361;BME280;54542;51.562;0.004;2022-07-10T03:05:23;102819.47;;;14.92;47.34
42361;BME280;54542;51.562;0.004;2022-07-10T03:07:51;102819.93;;;15.06;46.95
42361;BME280;54542;51.562;0.004;2022-07-10T03:10:18;102820.54;;;15.36;47.68
42361;BME280;54542;51.562;0.004;2022-07-10T03:12:45;102819.05;;;15.37;47.57
42361;BME280;54542;51.562;0.004;2022-07-10T03:15:13;102816.21;;;15.44;47.65
42361;BME280;54542;51.562;0.004;2022-07-10T03:17:40;102816.81;;;15.55;47.33
42361;BME280;54542;51.562;0.004;2022-07-10T03:20:08;102812.94;;;15.05;47.28
42361;BME280;54542;51.562;0.004;2022-07-10T03:22:36;102810.89;;;15.52;47.24
42361;BME280;54542;51.562;0.004;2022-07-10T03:25:04;102809.85;;;15.13;47.24
42361;BME280;54542;51.562;0.004;2022-07-10T03:27:32;102809.64;;;15.12;47.93
42361;BME280;54542;51.562;0.004;2022-07-10T03:29:59;102809.73;;;15.22;47.56
42361;BME280;54542;51.562;0.004;2022-07-10T03:32:26;102808.94;;;15.18;47.66
42361;BME280;54542;51.562;0.004;2022-07-10T03:34:54;102809.10;;;14.72;47.62
42361;BME280;54542;51.562;0.004;2022-07-10T03:37:21;102806.94;;;14.71;47.51
42361;BME280;54542;51.562;0.004;2022-07-10T03:39:49;102803.09;;;14.98;47.65
42361;BME280;54542;51.562;0.004;2022-07-10T03:42:16;102802.36;;;14.97;47.51
42361;BME280;54542;51.562;0.004;2022-07-10T03:44:43;102800.52;;;14.38;47.75
42361;BME280;54542;51.562;0.004;2022-07-10T03:47:10;102797.34;;;14.81;47.67
42361;BME280;54542;51.562;0.004;2022-07-10T03:49:38;102795.18;;;15.28;47.73
42361;BME280;54542;51.562;0.004;2022-07-10T03:52:05;102791.99;;;14.64;47.87
42361;BME280;54542;51.562;0.004;2022-07-10T03:54:33;102790.25;;;14.59;47.97
42361;BME280;54542;51.562;0.004;2022-07-10T03:57:00;102792.25;;;14.57;47.91
42361;BME280;54542;51.562;0.004;2022-07-10T03:59:27;102794.47;;;14.47;48.06
42361;BME280;54542;51.562;0.004;2022-07-10T04:01:54;102796.24;;;14.46;48.16
42361;BME280;54542;51.562;0.004;2022-07-10T04:04:21;102794.76;;;14.44;48.31
42361;BME280;54542;51.562;0.004;2022-07-10T04:06:48;102795.31;;;14.92;48.67
42361;BME280;54542;51.562;0.004;2022-07-10T04:09:15;102796.55;;;14.46;48.74
42361;BME280;54542;51.562;0.004;2022-07-10T04:11:43;102795.37;;;14.49;49.12
42361;BME280;54542;51.562;0.004;2022-07-10T04:14:09;102794.57;;;15.03;49.32
42361;BME280;54542;51.562;0.004;2022-07-10T04:16:36;102794.47;;;14.50;49.25
42361;BME280;54542;51.562;0.004;2022-07-10T04:19:03;102791.58;;;14.52;49.50
42361;BME280;54542;51.562;0.004;2022-07-10T04:21:30;102792.09;;;14.51;49.53
42361;BME280;54542;51.562;0.004;2022-07-10T04:23:58;102789.67;;;14.96;49.59
42361;BME280;54542;51.562;0.004;2022-07-10T04:26:25;102790.72;;;14.47;49.55
42361;BME280;54542;51.562;0.004;2022-07-10T04:28:52;102790.75;;;15.00;49.52
42361;BME280;54542;51.562;0.004;2022-07-10T04:31:19;102786.93;;;14.41;49.37
42361;BME280;54542;51.562;0.004;2022-07-10T04:33:46;102787.31;;;14.95;49.04
42361;BME280;54542;51.562;0.004;2022-07-10T04:36:13;102783.72;;;14.86;49.38
42361;BME280;54542;51.562;0.004;2022-07-10T04:38:40;102786.31;;;14.36;48.88
42361;BME280;54542;51.562;0.004;2022-07-10T04:41:07;102786.55;;;14.28;49.08
42361;BME280;54542;51.562;0.004;2022-07-10T04:43:34;102784.89;;;14.32;48.85
42361;BME280;54542;51.562;0.004;2022-07-10T04:46:01;102785.48;;;14.68;49.34
42361;BME280;54542;51.562;0.004;2022-07-10T04:48:28;102788.84;;;14.24;49.73
42361;BME280;54542;51.562;0.004;2022-07-10T04:50:55;102790.75;;;14.18;49.85
42361;BME280;54542;51.562;0.004;2022-07-10T04:53:22;102790.57;;;14.27;49.30
42361;BME280;54542;51.562;0.004;2022-07-10T04:55:50;102792.05;;;14.26;49.39
42361;BME280;54542;51.562;0.004;2022-07-10T04:58:16;102792.80;;;14.27;49.80
42361;BME280;54542;51.562;0.004;2022-07-10T05:00:43;102792.73;;;14.27;50.31
42361;BME280;54542;51.562;0.004;2022-07-10T05:03:10;102794.04;;;14.80;49.97
42361;BME280;54542;51.562;0.004;2022-07-10T05:05:37;102794.07;;;14.70;50.32
42361;BME280;54542;51.562;0.004;2022-07-10T05:08:05;102794.34;;;14.65;50.51
42361;BME280;54542;51.562;0.004;2022-07-10T05:10:32;102793.72;;;14.13;50.49
42361;BME280;54542;51.562;0.004;2022-07-10T05:12:59;102791.08;;;14.24;50.56
42361;BME280;54542;51.562;0.004;2022-07-10T05:15:27;102788.12;;;14.73;50.53
42361;BME280;54542;51.562;0.004;2022-07-10T05:17:53;102786.41;;;14.43;50.09
42361;BME280;54542;51.562;0.004;2022-07-10T05:20:20;102787.16;;;14.41;50.33
42361;BME280;54542;51.562;0.004;2022-07-10T05:22:47;102791.48;;;14.56;50.28
42361;BME280;54542;51.562;0.004;2022-07-10T05:25:15;102792.57;;;14.73;47.75
42361;BME280;54542;51.562;0.004;2022-07-10T05:27:41;102798.36;;;14.56;47.68
42361;BME280;54542;51.562;0.004;2022-07-10T05:30:09;102796.63;;;14.47;46.73
42361;BME280;54542;51.562;0.004;2022-07-10T05:32:42;102795.74;;;14.65;46.41
42361;BME280;54542;51.562;0.004;2022-07-10T05:35:09;102795.07;;;14.31;47.09
42361;BME280;54542;51.562;0.004;2022-07-10T05:37:36;102795.67;;;14.70;46.54
42361;BME280;54542;51.562;0.004;2022-07-10T05:40:05;102792.51;;;15.52;46.29
42361;BME280;54542;51.562;0.004;2022-07-10T05:42:34;102788.70;;;14.75;45.67
42361;BME280;54542;51.562;0.004;2022-07-10T05:45:02;102788.47;;;15.08;46.31
42361;BME280;54542;51.562;0.004;2022-07-10T05:47:29;102785.94;;;14.65;46.09
42361;BME280;54542;51.562;0.004;2022-07-10T05:49:56;102784.85;;;15.16;46.79
42361;BME280;54542;51.562;0.004;2022-07-10T05:52:23;102786.64;;;14.48;47.19
42361;BME280;54542;51.562;0.004;2022-07-10T05:54:50;102786.48;;;14.54;46.78
42361;BME280;54542;51.562;0.004;2022-07-10T05:57:18;102783.81;;;14.84;46.15
42361;BME280;54542;51.562;0.004;2022-07-10T05:59:45;102781.54;;;14.86;47.15
42361;BME280;54542;51.562;0.004;2022-07-10T06:02:12;102780.83;;;14.87;46.15
42361;BME280;54542;51.562;0.004;2022-07-10T06:04:39;102780.43;;;15.51;45.58
42361;BME280;54542;51.562;0.004;2022-07-10T06:07:06;102778.04;;;15.18;45.24
42361;BME280;54542;51.562;0.004;2022-07-10T06:09:33;102776.57;;;15.43;44.94
42361;BME280;54542;51.562;0.004;2022-07-10T06:12:00;102780.13;;;15.50;44.92
42361;BME280;54542;51.562;0.004;2022-07-10T06:14:27;102776.83;;;15.28;44.25
42361;BME280;54542;51.562;0.004;2022-07-10T06:16:54;102777.29;;;15.09;44.40
42361;BME280;54542;51.562;0.004;2022-07-10T06:19:21;102779.49;;;15.46;44.31
42361;BME280;54542;51.562;0.004;2022-07-10T06:21:48;102776.41;;;15.63;44.35
42361;BME280;54542;51.562;0.004;2022-07-10T06:24:15;102776.34;;;15.51;44.51
42361;BME280;54542;51.562;0.004;2022-07-10T06:26:42;102775.41;;;15.81;43.81
42361;BME280;54542;51.562;0.004;2022-07-10T06:29:09;102777.85;;;15.29;44.32
42361;BME280;54542;51.562;0.004;2022-07-10T06:31:36;102777.47;;;15.95;43.72
42361;BME280;54542;51.562;0.004;2022-07-10T06:34:03;102780.97;;;15.50;43.44
42361;BME280;54542;51.562;0.004;2022-07-10T06:36:30;102779.51;;;15.81;43.69
42361;BME280;54542;51.562;0.004;2022-07-10T06:38:57;102778.90;;;16.27;43.03
42361;BME280;54542;51.562;0.004;2022-07-10T06:41:24;102780.08;;;16.10;43.27
42361;BME280;54542;51.562;0.004;2022-07-10T06:43:51;102779.22;;;16.06;42.85
42361;BME280;54542;51.562;0.004;2022-07-10T06:46:18;102777.33;;;15.76;42.67
42361;BME280;54542;51.562;0.004;2022-07-10T06:48:45;102777.35;;;15.79;42.65
42361;BME280;54542;51.562;0.004;2022-07-10T06:51:12;102775.37;;;15.39;42.65
42361;BME280;54542;51.562;0.004;2022-07-10T06:53:39;102771.59;;;15.85;43.27
42361;BME280;54542;51.562;0.004;2022-07-10T06:56:07;102768.19;;;15.62;43.20
42361;BME280;54542;51.562;0.004;2022-07-10T06:58:34;102767.14;;;16.34;43.43
42361;BME280;54542;51.562;0.004;2022-07-10T07:01:01;102768.17;;;15.60;43.62
42361;BME280;54542;51.562;0.004;2022-07-10T07:03:28;102770.02;;;15.13;43.79
42361;BME280;54542;51.562;0.004;2022-07-10T07:05:55;102769.97;;;15.12;44.15
42361;BME280;54542;51.562;0.004;2022-07-10T07:08:22;102763.90;;;15.42;43.73
42361;BME280;54542;51.562;0.004;2022-07-10T07:10:49;102762.54;;;15.72;42.97
42361;BME280;54542;51.562;0.004;2022-07-10T07:13:17;102764.18;;;15.86;43.34
42361;BME280;54542;51.562;0.004;2022-07-10T07:15:44;102762.31;;;16.83;42.87
42361;BME280;54542;51.562;0.004;2022-07-10T07:18:11;102763.26;;;16.19;43.09
42361;BME280;54542;51.562;0.004;2022-07-10T07:20:38;102759.57;;;15.72;42.57
42361;BME280;54542;51.562;0.004;2022-07-10T07:23:05;102763.15;;;15.81;42.47
42361;BME280;54542;51.562;0.004;2022-07-10T07:25:32;102764.95;;;15.91;43.39
42361;BME280;54542;51.562;0.004;2022-07-10T07:27:59;102763.59;;;15.65;42.51
42361;BME280;54542;51.562;0.004;2022-07-10T07:30:27;102760.64;;;15.63;42.65
42361;BME280;54542;51.562;0.004;2022-07-10T07:32:54;102758.56;;;15.44;43.55
42361;BME280;54542;51.562;0.004;2022-07-10T07:35:21;102755.79;;;15.94;43.01
42361;BME280;54542;51.562;0.004;2022-07-10T07:37:50;102754.97;;;15.53;43.21
42361;BME280;54542;51.562;0.004;2022-07-10T07:40:19;102756.13;;;15.82;43.69
42361;BME280;54542;51.562;0.004;2022-07-10T07:42:47;102754.17;;;16.08;43.15
42361;BME280;54542;51.562;0.004;2022-07-10T07:45:15;102753.50;;;16.12;43.13
42361;BME280;54542;51.562;0.004;2022-07-10T07:47:45;102747.88;;;16.45;42.33
42361;BME280;54542;51.562;0.004;2022-07-10T07:50:12;102750.12;;;16.36;42.10
42361;BME280;54542;51.562;0.004;2022-07-10T07:52:40;102753.33;;;16.38;42.54
42361;BME280;54542;51.562;0.004;2022-07-10T07:55:09;102750.39;;;15.93;43.05
42361;BME280;54542;51.562;0.004;2022-07-10T07:57:36;102752.86;;;15.48;43.89
42361;BME280;54542;51.562;0.004;2022-07-10T08:00:06;102753.11;;;16.57;42.72
42361;BME280;54542;51.562;0.004;2022-07-10T08:02:34;102752.08;;;16.86;42.48
42361;BME280;54542;51.562;0.004;2022-07-10T08:05:02;102753.78;;;16.76;42.73
42361;BME280;54542;51.562;0.004;2022-07-10T08:07:34;102754.69;;;15.82;42.68
42361;BME280;54542;51.562;0.004;2022-07-10T08:10:02;102753.13;;;16.79;42.03
42361;BME280;54542;51.562;0.004;2022-07-10T08:12:29;102744.30;;;16.22;43.46
42361;BME280;54542;51.562;0.004;2022-07-10T08:14:56;102753.16;;;16.65;42.66
42361;BME280;54542;51.562;0.004;2022-07-10T08:17:23;102754.52;;;17.04;41.83
42361;BME280;54542;51.562;0.004;2022-07-10T08:19:49;102752.91;;;17.21;42.37
42361;BME280;54542;51.562;0.004;2022-07-10T08:22:17;102754.88;;;16.99;41.44
42361;BME280;54542;51.562;0.004;2022-07-10T08:24:45;102753.95;;;16.12;43.18
42361;BME280;54542;51.562;0.004;2022-07-10T08:27:12;102759.27;;;17.37;41.93
42361;BME280;54542;51.562;0.004;2022-07-10T08:29:39;102756.30;;;16.98;42.65
42361;BME280;54542;51.562;0.004;2022-07-10T08:32:07;102755.85;;;16.96;42.77
42361;BME280;54542;51.562;0.004;2022-07-10T08:34:34;102748.96;;;17.68;41.52
42361;BME280;54542;51.562;0.004;2022-07-10T08:37:01;102749.48;;;16.85;40.72
42361;BME280;54542;51.562;0.004;2022-07-10T08:39:29;102746.56;;;17.02;41.93
42361;BME280;54542;51.562;0.004;2022-07-10T08:41:57;102743.96;;;17.10;41.68
42361;BME280;54542;51.562;0.004;2022-07-10T08:44:25;102735.48;;;17.52;40.36
42361;BME280;54542;51.562;0.004;2022-07-10T08:46:52;102734.40;;;17.72;40.95
42361;BME280;54542;51.562;0.004;2022-07-10T08:49:20;102734.10;;;17.72;40.06
42361;BME280;54542;51.562;0.004;2022-07-10T08:51:57;102735.53;;;17.81;40.35
42361;BME280;54542;51.562;0.004;2022-07-10T08:54:26;102738.42;;;17.72;40.40
42361;BME280;54542;51.562;0.004;2022-07-10T08:56:54;102738.97;;;17.32;41.30
42361;BME280;54542;51.562;0.004;2022-07-10T08:59:22;102735.38;;;16.77;41.87
42361;BME280;54542;51.562;0.004;2022-07-10T09:01:50;102729.98;;;16.62;42.41
42361;BME280;54542;51.562;0.004;2022-07-10T09:04:19;102730.43;;;17.25;41.14
42361;BME280;54542;51.562;0.004;2022-07-10T09:06:46;102727.82;;;17.31;41.47
42361;BME280;54542;51.562;0.004;2022-07-10T09:09:14;102726.83;;;17.96;41.15
42361;BME280;54542;51.562;0.004;2022-07-10T09:11:41;102728.32;;;18.25;39.93
42361;BME280;54542;51.562;0.004;2022-07-10T09:14:10;102726.31;;;17.61;40.83
42361;BME280;54542;51.562;0.004;2022-07-10T09:16:39;102723.60;;;17.02;40.69
42361;BME280;54542;51.562;0.004;2022-07-10T09:19:16;102719.99;;;17.84;40.59
42361;BME280;54542;51.562;0.004;2022-07-10T09:21:45;102715.29;;;17.31;40.29
42361;BME280;54542;51.562;0.004;2022-07-10T09:24:13;102716.24;;;17.83;40.09
42361;BME280;54542;51.562;0.004;2022-07-10T09:26:41;102715.59;;;18.47;39.87
42361;BME280;54542;51.562;0.004;2022-07-10T09:29:11;102709.09;;;18.61;39.30
42361;BME280;54542;51.562;0.004;2022-07-10T09:31:56;102710.47;;;19.40;38.39
42361;BME280;54542;51.562;0.004;2022-07-10T09:34:41;102709.14;;;18.45;38.78
42361;BME280;54542;51.562;0.004;2022-07-10T09:37:25;102701.69;;;17.81;39.77
42361;BME280;54542;51.562;0.004;2022-07-10T09:39:55;102701.37;;;18.71;39.97
42361;BME280;54542;51.562;0.004;2022-07-10T09:42:27;102697.50;;;18.31;40.16
42361;BME280;54542;51.562;0.004;2022-07-10T09:45:13;102692.75;;;18.22;41.16
42361;BME280;54542;51.562;0.004;2022-07-10T09:47:42;102694.84;;;18.67;39.45
42361;BME280;54542;51.562;0.004;2022-07-10T09:50:20;102693.96;;;18.28;40.28
42361;BME280;54542;51.562;0.004;2022-07-10T09:52:49;102690.48;;;17.65;40.34
42361;BME280;54542;51.562;0.004;2022-07-10T09:55:17;102685.79;;;18.67;39.98
42361;BME280;54542;51.562;0.004;2022-07-10T09:57:52;102681.20;;;19.04;38.48
42361;BME280;54542;51.562;0.004;2022-07-10T10:00:22;102680.90;;;19.48;38.89
42361;BME280;54542;51.562;0.004;2022-07-10T10:02:51;102678.07;;;19.38;38.18
42361;BME280;54542;51.562;0.004;2022-07-10T10:05:20;102677.86;;;19.21;38.78
42361;BME280;54542;51.562;0.004;2022-07-10T10:07:48;102670.78;;;19.24;37.75
42361;BME280;54542;51.562;0.004;2022-07-10T10:10:16;102670.90;;;19.30;37.68
42361;BME280;54542;51.562;0.004;2022-07-10T10:12:48;102672.88;;;19.62;37.87
42361;BME280;54542;51.562;0.004;2022-07-10T10:15:21;102672.24;;;20.17;37.18
42361;BME280;54542;51.562;0.004;2022-07-10T10:17:50;102669.93;;;19.96;35.76
42361;BME280;54542;51.562;0.004;2022-07-10T10:20:19;102668.69;;;20.00;36.34
42361;BME280;54542;51.562;0.004;2022-07-10T10:22:48;102668.37;;;19.88;36.33
42361;BME280;54542;51.562;0.004;2022-07-10T10:25:16;102668.66;;;19.82;36.35
42361;BME280;54542;51.562;0.004;2022-07-10T10:27:45;102666.81;;;20.33;35.83
42361;BME280;54542;51.562;0.004;2022-07-10T10:30:12;102663.31;;;19.30;36.12
42361;BME280;54542;51.562;0.004;2022-07-10T10:32:40;102662.35;;;19.27;36.41
42361;BME280;54542;51.562;0.004;2022-07-10T10:35:08;102663.77;;;19.83;36.53
42361;BME280;54542;51.562;0.004;2022-07-10T10:37:37;102662.46;;;19.90;35.53
42361;BME280;54542;51.562;0.004;2022-07-10T10:40:06;102660.65;;;21.00;35.19
42361;BME280;54542;51.562;0.004;2022-07-10T10:42:36;102666.83;;;20.58;35.47
42361;BME280;54542;51.562;0.004;2022-07-10T10:45:37;102648.89;;;22.06;35.70
42361;BME280;54542;51.562;0.004;2022-07-10T10:48:06;102645.87;;;21.13;34.82
42361;BME280;54542;51.562;0.004;2022-07-10T10:50:37;102640.73;;;20.84;35.29
42361;BME280;54542;51.562;0.004;2022-07-10T10:53:05;102645.15;;;21.11;35.32
42361;BME280;54542;51.562;0.004;2022-07-10T10:55:39;102643.94;;;20.91;35.24
42361;BME280;54542;51.562;0.004;2022-07-10T10:58:15;102638.54;;;20.42;34.75
42361;BME280;54542;51.562;0.004;2022-07-10T11:00:44;102638.82;;;20.48;35.78
42361;BME280;54542;51.562;0.004;2022-07-10T11:03:13;102638.38;;;21.42;35.23
42361;BME280;54542;51.562;0.004;2022-07-10T11:05:42;102631.72;;;21.47;34.17
42361;BME280;54542;51.562;0.004;2022-07-10T11:08:12;102621.79;;;21.27;34.05
42361;BME280;54542;51.562;0.004;2022-07-10T11:10:41;102629.08;;;21.55;33.16
42361;BME280;54542;51.562;0.004;2022-07-10T11:13:09;102633.26;;;22.37;32.76
42361;BME280;54542;51.562;0.004;2022-07-10T11:15:39;102628.73;;;22.52;30.88
42361;BME280;54542;51.562;0.004;2022-07-10T11:18:07;102624.71;;;21.92;31.89
42361;BME280;54542;51.562;0.004;2022-07-10T11:20:37;102617.06;;;23.06;32.35
42361;BME280;54542;51.562;0.004;2022-07-10T11:23:15;102615.41;;;22.42;31.29
42361;BME280;54542;51.562;0.004;2022-07-10T11:25:49;102616.82;;;22.63;31.17
42361;BME280;54542;51.562;0.004;2022-07-10T11:28:22;102607.21;;;24.23;30.17
42361;BME280;54542;51.562;0.004;2022-07-10T11:30:53;102607.70;;;24.69;27.96
42361;BME280;54542;51.562;0.004;2022-07-10T11:33:21;102607.60;;;25.24;26.50
42361;BME280;54542;51.562;0.004;2022-07-10T11:35:50;102604.88;;;26.88;24.42
42361;BME280;54542;51.562;0.004;2022-07-10T11:38:20;102597.94;;;26.74;23.83
42361;BME280;54542;51.562;0.004;2022-07-10T11:40:47;102598.77;;;27.60;23.04
42361;BME280;54542;51.562;0.004;2022-07-10T11:43:15;102590.59;;;28.96;23.26
42361;BME280;54542;51.562;0.004;2022-07-10T11:45:43;102585.84;;;29.03;22.38
42361;BME280;54542;51.562;0.004;2022-07-10T11:48:17;102590.22;;;29.19;22.01
42361;BME280;54542;51.562;0.004;2022-07-10T11:50:45;102592.08;;;28.14;22.83
42361;BME280;54542;51.562;0.004;2022-07-10T11:53:12;102591.23;;;28.39;22.11
42361;BME280;54542;51.562;0.004;2022-07-10T11:55:40;102587.01;;;28.73;22.15
42361;BME280;54542;51.562;0.004;2022-07-10T11:58:16;102582.39;;;29.44;21.58
42361;BME280;54542;51.562;0.004;2022-07-10T12:00:44;102571.01;;;30.35;21.79
42361;BME280;54542;51.562;0.004;2022-07-10T12:03:20;102577.64;;;30.96;21.47
42361;BME280;54542;51.562;0.004;2022-07-10T12:05:48;102570.30;;;30.54;20.81
42361;BME280;54542;51.562;0.004;2022-07-10T12:08:16;102572.17;;;31.42;20.28
42361;BME280;54542;51.562;0.004;2022-07-10T12:10:44;102569.11;;;32.11;19.90
42361;BME280;54542;51.562;0.004;2022-07-10T12:13:13;102566.82;;;32.42;19.34
42361;BME280;54542;51.562;0.004;2022-07-10T12:15:42;102565.33;;;32.75;19.24
42361;BME280;54542;51.562;0.004;2022-07-10T12:18:16;102564.38;;;32.71;18.41
42361;BME280;54542;51.562;0.004;2022-07-10T12:20:44;102568.45;;;31.90;18.90
42361;BME280;54542;51.562;0.004;2022-07-10T12:23:12;102558.97;;;32.16;19.30
42361;BME280;54542;51.562;0.004;2022-07-10T12:25:41;102558.89;;;33.93;18.23
42361;BME280;54542;51.562;0.004;2022-07-10T12:28:08;102559.50;;;35.06;17.48
42361;BME280;54542;51.562;0.004;2022-07-10T12:30:37;102554.39;;;34.56;17.30
42361;BME280;54542;51.562;0.004;2022-07-10T12:33:07;102549.66;;;35.06;17.29
42361;BME280;54542;51.562;0.004;2022-07-10T12:35:47;102549.42;;;35.14;16.94
42361;BME280;54542;51.562;0.004;2022-07-10T12:38:16;102548.95;;;35.09;16.33
42361;BME280;54542;51.562;0.004;2022-07-10T12:40:44;102547.06;;;35.11;16.39
42361;BME280;54542;51.562;0.004;2022-07-10T12:43:11;102544.98;;;33.88;15.91
42361;BME280;54542;51.562;0.004;2022-07-10T12:45:38;102544.30;;;34.35;16.44
42361;BME280;54542;51.562;0.004;2022-07-10T12:48:06;102537.88;;;34.24;16.53
42361;BME280;54542;51.562;0.004;2022-07-10T12:50:33;102536.09;;;33.49;16.58
42361;BME280;54542;51.562;0.004;2022-07-10T12:53:09;102533.15;;;33.01;17.03
42361;BME280;54542;51.562;0.004;2022-07-10T12:55:37;102529.81;;;33.34;17.00